Mount Shasta, California
Current Conditions -  °F | °C
As of 9:56 AM on Friday 19 Dec 2014 (Local Time) from KMHS Reporting Station
Overcast Overcast  
Wind Chill: 43°   Ceiling: 4800
Heat Index: 43°   Visibility: 10mi
Dew Point: 41°   Wind: 0mph
Humidity: 93%   Direction: NA
Pressure: 30.05"   Gusts: NA
Location:  41.31°N, 122.31°W
Report Text: KMHS 191756Z AUTO 00000KT 10SM FEW026 BKN048 OVC055 06/05 A3005 RMK AO2 RAB25E50 SLP200 P0000 60015 T00610050 10061 20050 51008
Loading
Personal Weather Stations






























Interactive Weather Map New forecast layout! Learn more

10-Day Weather Forecast

Advertisements
Track Severe Weather on mobile